createdAt,value
2019-02-26T00:01:18.490Z,20.23
2019-02-26T00:05:23.797Z,19.45
2019-02-26T00:09:30.541Z,20.57
2019-02-26T00:13:36.610Z,21.37
2019-02-26T00:17:45.307Z,19.50
2019-02-26T00:21:49.731Z,19.02
2019-02-26T00:25:54.269Z,20.82
2019-02-26T00:29:58.661Z,20.37
2019-02-26T00:34:03.361Z,19.57
2019-02-26T00:38:08.972Z,20.70
2019-02-26T00:42:13.912Z,20.43
2019-02-26T00:46:19.275Z,21.75
2019-02-26T00:50:24.243Z,22.90
2019-02-26T00:54:31.972Z,23.00
2019-02-26T00:58:38.944Z,21.73
2019-02-26T01:02:42.654Z,21.60
2019-02-26T01:06:47.595Z,22.10
2019-02-26T01:10:57.148Z,23.12
2019-02-26T01:15:09.471Z,21.97
2019-02-26T01:19:17.517Z,23.45
2019-02-26T01:23:24.253Z,23.02
2019-02-26T01:27:31.191Z,21.73
2019-02-26T01:31:41.138Z,20.25
2019-02-26T01:36:07.818Z,21.20
2019-02-26T01:40:13.769Z,23.40
2019-02-26T01:44:28.109Z,23.83
2019-02-26T01:48:34.870Z,23.95
2019-02-26T01:52:40.359Z,24.50
2019-02-26T01:56:45.531Z,21.33
2019-02-26T02:00:50.071Z,23.77
2019-02-26T02:04:55.136Z,21.77
2019-02-26T02:09:02.445Z,23.15
2019-02-26T02:13:09.257Z,22.15
2019-02-26T02:17:14.966Z,23.22
2019-02-26T02:21:19.570Z,22.95
2019-02-26T02:25:24.648Z,23.40
2019-02-26T02:29:31.731Z,23.50
2019-02-26T02:33:37.669Z,23.35
2019-02-26T02:37:42.442Z,24.85
2019-02-26T02:41:48.762Z,24.87
2019-02-26T02:45:55.807Z,26.30
2019-02-26T02:49:59.345Z,27.02
2019-02-26T02:54:03.888Z,26.48
2019-02-26T02:58:08.672Z,25.77
2019-02-26T03:02:15.038Z,25.82
2019-02-26T03:06:20.042Z,24.63
2019-02-26T03:10:28.467Z,28.73
2019-02-26T03:14:33.814Z,27.95
2019-02-26T03:18:37.768Z,28.47
2019-02-26T03:22:45.924Z,27.42
2019-02-26T03:26:48.455Z,26.85
2019-02-26T03:30:52.920Z,27.93
2019-02-26T03:35:02.111Z,29.57
2019-02-26T03:39:05.075Z,27.25
2019-02-26T03:43:13.230Z,28.12
2019-02-26T03:47:18.870Z,27.95
2019-02-26T03:51:24.117Z,26.68
2019-02-26T03:55:31.723Z,28.77
2019-02-26T03:59:36.129Z,29.75
2019-02-26T04:03:42.473Z,29.23
2019-02-26T04:07:51.701Z,28.60
2019-02-26T04:11:55.431Z,28.02
2019-02-26T04:16:03.853Z,27.30
2019-02-26T04:20:07.000Z,29.20
2019-02-26T04:24:11.490Z,29.02
2019-02-26T04:28:30.691Z,28.02
2019-02-26T04:32:48.812Z,28.70
2019-02-26T04:37:39.133Z,29.92
2019-02-26T04:42:00.872Z,29.18
2019-02-26T04:46:54.027Z,30.77
2019-02-26T04:50:59.839Z,30.62
2019-02-26T04:55:05.795Z,28.73
2019-02-26T04:59:12.541Z,32.45
2019-02-26T05:03:20.093Z,29.77
2019-02-26T05:07:23.851Z,30.00
2019-02-26T05:11:32.404Z,30.25
2019-02-26T05:15:34.948Z,32.60
2019-02-26T05:19:42.419Z,30.57
2019-02-26T05:23:46.615Z,29.67
2019-02-26T05:27:52.540Z,30.97
2019-02-26T05:31:58.880Z,30.75
2019-02-26T05:36:04.063Z,29.75
2019-02-26T05:40:12.860Z,30.40
2019-02-26T05:44:15.689Z,30.80
2019-02-26T05:48:21.314Z,32.78
2019-02-26T05:52:27.229Z,32.03
2019-02-26T05:56:34.133Z,32.93
2019-02-26T06:00:39.372Z,32.28
2019-02-26T06:04:47.664Z,31.77
2019-02-26T06:08:55.301Z,32.70
2019-02-26T06:12:58.863Z,32.60
2019-02-26T06:17:03.319Z,42.30
2019-02-26T06:21:08.074Z,31.77
2019-02-26T06:25:18.616Z,32.65
2019-02-26T06:29:22.258Z,32.95
2019-02-26T06:33:31.860Z,34.05
2019-02-26T06:37:33.705Z,32.30
2019-02-26T06:41:41.790Z,31.80
2019-02-26T06:45:47.679Z,32.93
2019-02-26T06:49:52.687Z,34.48
2019-02-26T06:53:58.771Z,34.60
2019-02-26T06:58:23.771Z,32.67
2019-02-26T07:02:29.161Z,35.78
2019-02-26T07:06:34.911Z,34.23
2019-02-26T07:10:40.141Z,33.78
2019-02-26T07:14:46.446Z,34.55
2019-02-26T07:18:51.292Z,34.88
2019-02-26T07:22:56.037Z,34.27
2019-02-26T07:27:02.462Z,34.73
2019-02-26T07:31:08.113Z,33.67
2019-02-26T07:35:16.385Z,35.38
2019-02-26T07:39:20.920Z,35.78
2019-02-26T07:43:26.068Z,37.55
2019-02-26T07:47:31.453Z,35.75
2019-02-26T07:51:38.548Z,36.35
2019-02-26T07:55:44.023Z,35.78
2019-02-26T07:59:50.722Z,36.00
2019-02-26T08:03:55.380Z,37.63
2019-02-26T08:08:00.420Z,36.53
2019-02-26T08:12:07.189Z,36.60
2019-02-26T08:16:12.155Z,36.05
2019-02-26T08:20:16.866Z,37.85
2019-02-26T08:24:24.634Z,37.28
2019-02-26T08:28:29.228Z,37.53
2019-02-26T08:32:33.705Z,39.10
2019-02-26T08:36:38.475Z,38.42
2019-02-26T08:40:43.012Z,38.83
2019-02-26T08:44:48.645Z,38.35
2019-02-26T08:48:53.907Z,39.03
2019-02-26T08:53:00.813Z,38.38
2019-02-26T08:57:05.747Z,41.02
2019-02-26T09:01:10.143Z,39.00
2019-02-26T09:05:14.619Z,39.40
2019-02-26T09:09:21.002Z,39.25
2019-02-26T09:13:26.293Z,38.95
2019-02-26T09:17:32.472Z,40.03
2019-02-26T09:21:41.751Z,40.80
2019-02-26T09:25:48.578Z,40.10
2019-02-26T09:29:51.470Z,39.90
2019-02-26T09:33:56.336Z,39.70
2019-02-26T09:38:01.034Z,40.30
2019-02-26T09:42:06.608Z,40.03
2019-02-26T09:46:16.326Z,41.90
2019-02-26T09:50:22.568Z,41.65
2019-02-26T09:54:26.947Z,41.05
2019-02-26T09:58:32.550Z,40.75
2019-02-26T10:02:37.290Z,45.85
2019-02-26T10:06:43.019Z,43.13
2019-02-26T10:10:51.381Z,40.48
2019-02-26T10:14:59.609Z,40.98
2019-02-26T10:19:02.605Z,41.58
2019-02-26T10:23:07.511Z,40.65
2019-02-26T10:27:14.605Z,41.63
2019-02-26T10:31:23.945Z,40.85
2019-02-26T10:35:33.363Z,40.28
2019-02-26T10:39:32.416Z,41.20
2019-02-26T10:43:37.220Z,40.38
2019-02-26T10:47:41.967Z,41.63
2019-02-26T10:51:46.724Z,41.68
2019-02-26T10:55:51.489Z,39.55
2019-02-26T10:59:59.177Z,41.48
2019-02-26T11:04:04.280Z,39.60
2019-02-26T11:08:09.557Z,41.70
2019-02-26T11:12:14.440Z,41.02
2019-02-26T11:16:25.285Z,42.05
2019-02-26T11:20:30.032Z,40.23
2019-02-26T11:24:33.694Z,41.25
2019-02-26T11:28:40.545Z,40.65
2019-02-26T11:32:47.384Z,41.88
2019-02-26T11:36:58.487Z,39.23
2019-02-26T11:41:03.951Z,40.85
2019-02-26T11:45:12.586Z,40.23
2019-02-26T11:49:19.393Z,40.98
2019-02-26T11:53:25.096Z,42.88
2019-02-26T11:57:32.577Z,42.55
2019-02-26T12:01:39.011Z,42.67
2019-02-26T12:05:42.779Z,42.75
2019-02-26T12:09:47.366Z,40.25
2019-02-26T12:13:53.146Z,41.18
2019-02-26T12:17:58.897Z,41.37
2019-02-26T12:22:05.399Z,40.88
2019-02-26T12:26:11.339Z,40.65
2019-02-26T12:30:20.517Z,41.05
2019-02-26T12:34:24.652Z,37.88
2019-02-26T12:38:29.116Z,39.45
2019-02-26T12:42:33.640Z,38.63
2019-02-26T12:46:39.598Z,39.90
2019-02-26T12:50:44.540Z,39.92
2019-02-26T12:54:49.029Z,39.67
2019-02-26T12:58:54.542Z,38.60
2019-02-26T13:03:00.633Z,39.92
2019-02-26T13:07:06.697Z,39.08
2019-02-26T13:11:14.013Z,40.78
2019-02-26T13:15:19.363Z,39.38
2019-02-26T13:19:29.231Z,39.95
2019-02-26T13:23:31.174Z,40.28
2019-02-26T13:27:38.502Z,41.20
2019-02-26T13:31:50.775Z,41.40
2019-02-26T13:35:58.176Z,42.25
2019-02-26T13:39:58.131Z,40.17
2019-02-26T13:44:03.173Z,41.77
2019-02-26T13:48:07.571Z,40.90
2019-02-26T13:52:12.289Z,41.13
2019-02-26T13:56:16.781Z,41.25
2019-02-26T14:00:26.213Z,40.98
2019-02-26T14:04:31.510Z,41.63
2019-02-26T14:08:36.724Z,39.92
2019-02-26T14:12:41.729Z,38.65
2019-02-26T14:16:46.518Z,40.58
2019-02-26T14:20:51.361Z,41.30
2019-02-26T14:24:56.086Z,41.90
2019-02-26T14:29:01.472Z,42.08
2019-02-26T14:33:05.900Z,41.55
2019-02-26T14:37:10.381Z,43.08
2019-02-26T14:41:15.455Z,41.18
2019-02-26T14:45:20.284Z,46.37
2019-02-26T14:49:24.837Z,39.60
2019-02-26T14:53:29.352Z,40.78
2019-02-26T14:57:35.196Z,40.35
2019-02-26T15:01:39.691Z,42.85
2019-02-26T15:05:44.156Z,43.38
2019-02-26T15:09:49.028Z,43.58
2019-02-26T15:13:53.451Z,42.35
2019-02-26T15:17:58.332Z,43.25
2019-02-26T15:22:02.755Z,43.80
2019-02-26T15:26:08.103Z,44.73
2019-02-26T15:30:13.648Z,44.38
2019-02-26T15:34:18.426Z,44.50
2019-02-26T15:38:22.979Z,45.28
2019-02-26T15:42:27.775Z,48.28
2019-02-26T15:46:32.832Z,45.75
2019-02-26T15:50:40.255Z,45.73
2019-02-26T15:54:44.498Z,48.92
2019-02-26T15:58:49.554Z,47.40
2019-02-26T16:02:54.427Z,49.27
2019-02-26T16:06:58.978Z,48.15
2019-02-26T16:11:03.513Z,50.30
2019-02-26T16:15:09.269Z,48.98
2019-02-26T16:19:13.637Z,51.40
2019-02-26T16:23:18.401Z,50.98
2019-02-26T16:27:23.510Z,49.55
2019-02-26T16:31:30.012Z,49.13
2019-02-26T16:35:34.329Z,49.77
2019-02-26T16:39:40.062Z,49.48
2019-02-26T16:43:47.242Z,49.25
2019-02-26T16:47:52.207Z,50.83
2019-02-26T16:51:56.624Z,52.00
2019-02-26T16:56:01.523Z,51.80
2019-02-26T17:00:07.564Z,50.55
2019-02-26T17:04:12.921Z,51.23
2019-02-26T17:08:30.359Z,52.40
2019-02-26T17:12:38.120Z,49.63
2019-02-26T17:16:43.100Z,53.98
2019-02-26T17:20:49.484Z,53.73
2019-02-26T17:24:57.131Z,50.88
2019-02-26T17:29:02.844Z,48.73
2019-02-26T17:33:11.360Z,50.95
2019-02-26T17:37:18.152Z,49.53
2019-02-26T17:41:22.522Z,54.13
2019-02-26T17:45:27.107Z,51.58
2019-02-26T17:49:33.633Z,53.98
2019-02-26T17:53:39.288Z,54.40
2019-02-26T17:57:46.551Z,55.45
2019-02-26T18:01:51.406Z,57.43
2019-02-26T18:05:56.148Z,57.70
2019-02-26T18:10:00.940Z,54.73
2019-02-26T18:14:07.971Z,56.60
2019-02-26T18:18:13.848Z,58.33
2019-02-26T18:22:21.757Z,56.85
2019-02-26T18:26:28.439Z,55.10
2019-02-26T18:30:34.415Z,55.03
2019-02-26T18:34:39.183Z,53.83
2019-02-26T18:38:44.071Z,51.37
2019-02-26T18:42:49.474Z,53.42
2019-02-26T18:46:54.231Z,51.10
2019-02-26T18:50:59.697Z,51.60
2019-02-26T18:55:05.720Z,47.93
2019-02-26T18:59:10.498Z,51.02
2019-02-26T19:03:14.972Z,52.65
2019-02-26T19:07:20.050Z,52.17
2019-02-26T19:11:25.664Z,53.28
2019-02-26T19:15:30.926Z,54.53
2019-02-26T19:19:36.199Z,53.30
2019-02-26T19:23:40.797Z,56.73
2019-02-26T19:27:45.907Z,53.92
2019-02-26T19:31:58.294Z,51.98
2019-02-26T19:36:03.425Z,58.90
2019-02-26T19:40:10.139Z,53.50
2019-02-26T19:44:17.645Z,54.10
2019-02-26T19:48:22.278Z,58.30
2019-02-26T19:52:26.809Z,54.53
2019-02-26T19:56:33.298Z,57.38
2019-02-26T20:00:38.094Z,57.78
2019-02-26T20:04:42.716Z,55.90
2019-02-26T20:08:56.465Z,54.23
2019-02-26T20:13:01.592Z,58.28
2019-02-26T20:17:14.287Z,56.70
2019-02-26T20:21:16.884Z,59.27
2019-02-26T20:25:22.329Z,60.17
2019-02-26T20:29:28.304Z,57.95
2019-02-26T20:33:33.044Z,58.38
2019-02-26T20:37:39.531Z,58.73
2019-02-26T20:41:44.055Z,56.75
2019-02-26T20:45:51.109Z,60.80
2019-02-26T20:49:55.295Z,61.02
2019-02-26T20:54:00.092Z,59.25
2019-02-26T20:58:04.777Z,59.08
2019-02-26T21:02:10.655Z,62.93
2019-02-26T21:06:15.618Z,59.83
2019-02-26T21:10:22.008Z,63.63
2019-02-26T21:14:31.593Z,60.92
2019-02-26T21:18:40.022Z,61.13
2019-02-26T21:22:49.612Z,61.40
2019-02-26T21:26:54.947Z,62.88
2019-02-26T21:30:59.435Z,64.53
2019-02-26T21:35:04.782Z,61.30
2019-02-26T21:39:11.104Z,62.75
2019-02-26T21:43:17.189Z,61.70
2019-02-26T21:47:21.612Z,64.55
2019-02-26T21:51:27.980Z,64.00
2019-02-26T21:55:43.963Z,61.50
2019-02-26T21:59:39.883Z,62.23
2019-02-26T22:03:44.446Z,63.08
2019-02-26T22:07:52.140Z,63.60
2019-02-26T22:11:55.714Z,60.25
2019-02-26T22:16:02.389Z,63.58
2019-02-26T22:20:09.275Z,65.42
2019-02-26T22:24:14.300Z,58.95
2019-02-26T22:28:18.864Z,64.22
2019-02-26T22:32:23.976Z,60.88
2019-02-26T22:36:30.780Z,63.75
2019-02-26T22:40:34.499Z,64.70
2019-02-26T22:44:39.464Z,65.70
2019-02-26T22:48:44.569Z,63.70
2019-02-26T22:52:50.148Z,67.53
2019-02-26T22:56:56.851Z,64.47
2019-02-26T23:01:16.335Z,65.03
2019-02-26T23:05:29.129Z,63.80
2019-02-26T23:09:34.607Z,65.83
2019-02-26T23:13:39.765Z,62.25
2019-02-26T23:17:44.272Z,65.70
2019-02-26T23:21:49.975Z,66.33
2019-02-26T23:25:55.202Z,66.37
2019-02-26T23:29:59.692Z,65.62
2019-02-26T23:34:05.468Z,70.10
2019-02-26T23:38:09.904Z,68.83
2019-02-26T23:42:14.874Z,68.55
2019-02-26T23:46:19.318Z,68.10
2019-02-26T23:50:24.758Z,61.53
2019-02-26T23:54:29.519Z,61.80
2019-02-26T23:58:34.195Z,70.75
